createdAt,value
2023-03-10T00:03:21.903Z,5.55
2023-03-10T00:08:26.097Z,5.68
2023-03-10T00:13:27.907Z,5.79
2023-03-10T00:18:28.563Z,5.87
2023-03-10T00:23:30.587Z,5.87
2023-03-10T00:28:31.214Z,5.95
2023-03-10T00:33:33.153Z,5.93
2023-03-10T00:38:35.853Z,5.99
2023-03-10T00:43:36.891Z,6.01
2023-03-10T00:48:38.050Z,6.11
2023-03-10T00:53:41.425Z,6.09
2023-03-10T00:58:42.286Z,6.22
2023-03-10T01:03:43.125Z,6.27
2023-03-10T01:08:45.112Z,6.31
2023-03-10T01:13:47.874Z,6.33
2023-03-10T01:18:48.729Z,6.31
2023-03-10T01:23:50.849Z,6.36
2023-03-10T01:28:51.516Z,6.36
2023-03-10T01:33:52.445Z,6.40
2023-03-10T01:38:56.200Z,6.48
2023-03-10T01:43:59.122Z,6.50
2023-03-10T01:49:03.556Z,6.46
2023-03-10T01:54:10.404Z,6.52
2023-03-10T01:59:12.098Z,6.51
2023-03-10T02:04:17.437Z,6.51
2023-03-10T02:09:21.103Z,6.55
2023-03-10T02:14:21.845Z,6.60
2023-03-10T02:19:38.711Z,6.57
2023-03-10T02:24:48.024Z,6.61
2023-03-10T02:29:59.848Z,6.67
2023-03-10T02:35:05.595Z,6.85
2023-03-10T02:40:29.756Z,6.80
2023-03-10T02:45:34.096Z,6.96
2023-03-10T02:50:38.954Z,6.98
2023-03-10T02:55:39.675Z,7.15
2023-03-10T03:00:44.898Z,7.39
2023-03-10T03:05:48.245Z,7.60
2023-03-10T03:10:49.464Z,7.64
2023-03-10T03:15:52.121Z,7.64
2023-03-10T03:20:53.189Z,7.67
2023-03-10T03:25:53.922Z,7.75
2023-03-10T03:30:57.668Z,7.58
2023-03-10T03:35:58.533Z,7.56
2023-03-10T03:40:59.671Z,7.56
2023-03-10T03:46:02.447Z,7.55
2023-03-10T03:51:03.614Z,7.50
2023-03-10T03:56:10.973Z,7.53
2023-03-10T04:01:15.616Z,7.51
2023-03-10T04:06:21.122Z,7.38
2023-03-10T04:11:22.073Z,7.31
2023-03-10T04:16:27.060Z,7.30
2023-03-10T04:21:27.862Z,7.31
2023-03-10T04:26:31.050Z,7.28
2023-03-10T04:31:33.388Z,7.17
2023-03-10T04:36:35.820Z,7.20
2023-03-10T04:41:37.973Z,7.14
2023-03-10T04:46:41.006Z,7.21
2023-03-10T04:51:42.643Z,7.22
2023-03-10T04:56:43.603Z,7.42
2023-03-10T05:01:46.217Z,7.59
2023-03-10T05:06:51.460Z,7.78
2023-03-10T05:11:57.213Z,7.76
2023-03-10T05:17:00.541Z,7.91
2023-03-10T05:22:02.203Z,8.04
2023-03-10T05:27:05.539Z,8.21
2023-03-10T05:32:08.924Z,8.15
2023-03-10T05:37:13.284Z,8.15
2023-03-10T05:42:14.140Z,8.27
2023-03-10T05:47:19.205Z,8.39
2023-03-10T05:52:21.052Z,8.55
2023-03-10T05:57:22.771Z,8.67
2023-03-10T06:02:24.749Z,8.67
2023-03-10T06:07:25.414Z,8.86
2023-03-10T06:12:26.055Z,8.86
2023-03-10T06:17:28.195Z,8.85
2023-03-10T06:22:31.156Z,8.92
2023-03-10T06:27:32.776Z,8.99
2023-03-10T06:32:36.359Z,9.16
2023-03-10T06:37:37.068Z,9.21
2023-03-10T06:42:37.746Z,9.38
2023-03-10T06:47:40.028Z,9.35
2023-03-10T06:52:42.574Z,9.34
2023-03-10T06:57:43.407Z,9.37
2023-03-10T07:02:45.480Z,9.33
2023-03-10T07:07:46.274Z,9.34
2023-03-10T07:12:49.778Z,9.44
2023-03-10T07:17:51.761Z,9.47
2023-03-10T07:22:52.991Z,9.57
2023-03-10T07:27:53.642Z,9.63
2023-03-10T07:32:55.722Z,9.80
2023-03-10T07:37:56.673Z,9.94
2023-03-10T07:42:57.349Z,10.10
2023-03-10T07:48:01.863Z,10.14
2023-03-10T07:53:02.680Z,10.19
2023-03-10T07:58:03.428Z,10.26
2023-03-10T08:03:05.422Z,10.43
2023-03-10T08:08:06.555Z,10.57
2023-03-10T08:13:07.265Z,10.68
2023-03-10T08:18:09.708Z,10.86
2023-03-10T08:23:10.413Z,11.07
2023-03-10T08:28:11.107Z,11.30
2023-03-10T08:33:13.274Z,11.51
2023-03-10T08:38:13.988Z,11.52
2023-03-10T08:43:14.931Z,11.64
2023-03-10T08:48:16.979Z,11.77
2023-03-10T08:53:17.702Z,11.65
2023-03-10T08:58:18.582Z,11.66
2023-03-10T09:03:21.396Z,11.61
2023-03-10T09:08:22.455Z,11.79
2023-03-10T09:13:23.296Z,11.99
2023-03-10T09:18:25.268Z,12.14
2023-03-10T09:23:25.938Z,12.10
2023-03-10T09:28:26.577Z,12.38
2023-03-10T09:33:28.634Z,12.56
2023-03-10T09:38:29.831Z,12.59
2023-03-10T09:43:37.764Z,12.43
2023-03-10T09:48:51.340Z,12.34
2023-03-10T09:54:03.196Z,12.50
2023-03-10T09:59:11.282Z,12.73
2023-03-10T10:04:16.833Z,13.19
2023-03-10T10:09:27.312Z,13.27
2023-03-10T10:14:31.599Z,13.58
2023-03-10T10:19:36.772Z,13.73
2023-03-10T10:24:38.627Z,14.19
2023-03-10T10:29:42.361Z,14.36
2023-03-10T10:34:46.551Z,14.18
2023-03-10T10:39:50.809Z,13.85
2023-03-10T10:44:54.346Z,13.83
2023-03-10T10:50:09.353Z,13.80
2023-03-10T10:55:29.322Z,13.68
2023-03-10T11:00:32.469Z,13.76
2023-03-10T11:05:37.615Z,13.77
2023-03-10T11:10:39.184Z,13.90
2023-03-10T11:15:50.422Z,13.67
2023-03-10T11:20:59.588Z,13.85
2023-03-10T11:26:05.316Z,13.81
2023-03-10T11:31:18.489Z,13.72
2023-03-10T11:36:31.721Z,13.81
2023-03-10T11:41:37.340Z,13.99
2023-03-10T11:46:44.461Z,13.95
2023-03-10T11:51:50.044Z,14.21
2023-03-10T11:56:51.951Z,14.10
2023-03-10T12:01:56.547Z,14.02
2023-03-10T12:07:05.601Z,14.39
2023-03-10T12:12:08.459Z,14.61
2023-03-10T12:17:12.980Z,14.35
2023-03-10T12:22:39.083Z,14.52
2023-03-10T12:28:14.386Z,14.57
2023-03-10T12:33:44.228Z,14.31
2023-03-10T12:38:51.071Z,14.13
2023-03-10T12:43:56.785Z,13.90
2023-03-10T12:49:13.715Z,13.99
2023-03-10T12:54:48.993Z,14.18
2023-03-10T12:59:58.080Z,14.17
2023-03-10T13:05:03.764Z,14.15
2023-03-10T13:10:07.818Z,14.32
2023-03-10T13:15:24.806Z,14.62
2023-03-10T13:20:25.632Z,15.13
2023-03-10T13:25:28.520Z,15.30
2023-03-10T13:30:31.378Z,14.79
2023-03-10T13:35:36.050Z,14.61
2023-03-10T13:40:42.218Z,14.54
2023-03-10T13:45:43.482Z,14.82
2023-03-10T13:50:44.254Z,14.70
2023-03-10T13:55:46.298Z,14.93
2023-03-10T14:00:50.636Z,15.03
2023-03-10T14:05:51.376Z,15.12
2023-03-10T14:10:53.484Z,14.96
2023-03-10T14:15:55.718Z,14.92
2023-03-10T14:20:57.022Z,14.65
2023-03-10T14:25:59.377Z,14.32
2023-03-10T14:31:02.572Z,13.10
2023-03-10T14:36:12.078Z,11.13
2023-03-10T14:41:15.246Z,9.59
2023-03-10T14:46:16.163Z,8.68
2023-03-10T14:51:34.564Z,8.35
2023-03-10T14:56:37.583Z,8.27
2023-03-10T15:01:38.335Z,8.30
2023-03-10T15:06:39.119Z,8.38
2023-03-10T15:11:42.122Z,8.52
2023-03-10T15:16:42.875Z,8.91
2023-03-10T15:21:43.567Z,9.41
2023-03-10T15:26:45.786Z,9.60
2023-03-10T15:31:46.897Z,9.64
2023-03-10T15:36:47.699Z,9.97
2023-03-10T15:41:50.286Z,10.16
2023-03-10T15:46:55.008Z,10.22
2023-03-10T15:51:56.156Z,10.25
2023-03-10T15:56:58.116Z,10.32
2023-03-10T16:01:58.984Z,10.34
2023-03-10T16:07:03.365Z,10.20
2023-03-10T16:12:06.322Z,10.01
2023-03-10T16:17:07.045Z,9.87
2023-03-10T16:22:10.307Z,9.73
2023-03-10T16:27:13.060Z,9.65
2023-03-10T16:32:14.953Z,9.54
2023-03-10T16:37:15.739Z,9.58
2023-03-10T16:42:18.341Z,9.70
2023-03-10T16:47:19.050Z,9.73
2023-03-10T16:52:19.721Z,9.65
2023-03-10T16:57:21.811Z,9.47
2023-03-10T17:02:22.480Z,9.39
2023-03-10T17:07:23.293Z,9.39
2023-03-10T17:12:25.274Z,9.38
2023-03-10T17:17:26.001Z,9.41
2023-03-10T17:22:26.795Z,9.37
2023-03-10T17:27:29.023Z,9.28
2023-03-10T17:32:30.764Z,9.10
2023-03-10T17:37:31.616Z,9.20
2023-03-10T17:42:33.680Z,9.13
2023-03-10T17:47:34.381Z,9.02
2023-03-10T17:52:35.082Z,8.88
2023-03-10T17:57:39.048Z,8.80
2023-03-10T18:02:41.191Z,8.66
2023-03-10T18:07:41.981Z,8.58
2023-03-10T18:12:44.029Z,8.56
2023-03-10T18:17:44.752Z,8.59
2023-03-10T18:22:45.650Z,8.49
2023-03-10T18:27:47.912Z,8.47
2023-03-10T18:32:48.655Z,8.41
2023-03-10T18:37:49.376Z,8.40
2023-03-10T18:42:51.414Z,8.50
2023-03-10T18:47:52.190Z,8.34
2023-03-10T18:52:52.937Z,8.34
2023-03-10T18:57:55.152Z,8.37
2023-03-10T19:02:55.979Z,8.43
2023-03-10T19:07:56.885Z,8.48
2023-03-10T19:12:59.084Z,8.44
2023-03-10T19:17:59.887Z,8.46
2023-03-10T19:23:00.616Z,8.45
2023-03-10T19:28:02.666Z,8.54
2023-03-10T19:33:03.640Z,8.67
2023-03-10T19:38:04.369Z,8.78
2023-03-10T19:43:06.444Z,8.80
2023-03-10T19:48:07.523Z,8.69
2023-03-10T19:53:08.193Z,8.64
2023-03-10T19:58:10.327Z,8.57
2023-03-10T20:03:11.019Z,8.56
2023-03-10T20:08:11.715Z,8.54
2023-03-10T20:13:14.295Z,8.35
2023-03-10T20:18:18.369Z,8.08
2023-03-10T20:23:19.080Z,7.99
2023-03-10T20:28:21.129Z,8.01
2023-03-10T20:33:21.928Z,8.07
2023-03-10T20:38:22.845Z,8.11
2023-03-10T20:43:24.875Z,8.13
2023-03-10T20:48:25.609Z,7.95
2023-03-10T20:53:26.353Z,7.83
2023-03-10T20:58:28.804Z,7.61
2023-03-10T21:03:29.451Z,7.61
2023-03-10T21:08:30.144Z,7.56
2023-03-10T21:13:32.386Z,7.59
2023-03-10T21:18:33.174Z,7.49
2023-03-10T21:23:35.672Z,7.49
2023-03-10T21:28:42.433Z,7.39
2023-03-10T21:33:43.315Z,7.31
2023-03-10T21:38:44.066Z,7.27
2023-03-10T21:43:46.112Z,7.17
2023-03-10T21:48:46.930Z,7.20
2023-03-10T21:53:48.281Z,7.18
2023-03-10T21:58:50.540Z,7.11
2023-03-10T22:03:51.390Z,6.98
2023-03-10T22:08:52.063Z,6.91
2023-03-10T22:13:54.461Z,6.88
2023-03-10T22:18:55.153Z,6.82
2023-03-10T22:23:55.817Z,6.76
2023-03-10T22:28:57.835Z,6.63
2023-03-10T22:33:58.502Z,6.54
2023-03-10T22:38:59.161Z,6.45
2023-03-10T22:44:01.149Z,6.38
2023-03-10T22:49:01.888Z,6.26
2023-03-10T22:54:03.828Z,6.21
2023-03-10T22:59:06.000Z,6.22
2023-03-10T23:04:06.978Z,6.13
2023-03-10T23:09:10.380Z,6.06
2023-03-10T23:14:12.739Z,6.02
2023-03-10T23:19:13.463Z,5.94
2023-03-10T23:24:14.191Z,5.84
2023-03-10T23:29:19.486Z,5.69
2023-03-10T23:34:20.188Z,5.61
2023-03-10T23:39:20.882Z,5.52
2023-03-10T23:44:22.988Z,5.07
2023-03-10T23:49:23.707Z,4.42
2023-03-10T23:54:24.466Z,3.98
2023-03-10T23:59:26.726Z,3.61
